sensor_id;sensor_type;location;lat;lon;timestamp;P1;durP1;ratioP1;P2;durP2;ratioP2
67747;SDS011;54543;50.712;6.070;2022-11-30T00:01:28;17.75;;;6.90;;
67747;SDS011;54543;50.712;6.070;2022-11-30T00:03:54;16.85;;;6.55;;
67747;SDS011;54543;50.712;6.070;2022-11-30T00:06:21;19.70;;;7.63;;
67747;SDS011;54543;50.712;6.070;2022-11-30T00:08:48;19.45;;;7.07;;
67747;SDS011;54543;50.712;6.070;2022-11-30T00:11:18;16.48;;;6.53;;
67747;SDS011;54543;50.712;6.070;2022-11-30T00:13:46;16.90;;;6.70;;
67747;SDS011;54543;50.712;6.070;2022-11-30T00:16:12;15.43;;;7.18;;
67747;SDS011;54543;50.712;6.070;2022-11-30T00:18:38;19.95;;;6.82;;
67747;SDS011;54543;50.712;6.070;2022-11-30T00:21:05;20.33;;;7.03;;
67747;SDS011;54543;50.712;6.070;2022-11-30T00:23:36;19.38;;;7.03;;
67747;SDS011;54543;50.712;6.070;2022-11-30T00:26:04;19.10;;;6.68;;
67747;SDS011;54543;50.712;6.070;2022-11-30T00:28:31;17.02;;;6.50;;
67747;SDS011;54543;50.712;6.070;2022-11-30T00:31:02;17.27;;;6.45;;
67747;SDS011;54543;50.712;6.070;2022-11-30T00:33:31;16.85;;;6.05;;
67747;SDS011;54543;50.712;6.070;2022-11-30T00:36:01;18.00;;;7.05;;
67747;SDS011;54543;50.712;6.070;2022-11-30T00:38:40;22.15;;;7.03;;
67747;SDS011;54543;50.712;6.070;2022-11-30T00:41:05;16.90;;;6.38;;
67747;SDS011;54543;50.712;6.070;2022-11-30T00:43:31;18.58;;;7.07;;
67747;SDS011;54543;50.712;6.070;2022-11-30T00:45:57;15.73;;;6.43;;
67747;SDS011;54543;50.712;6.070;2022-11-30T00:48:22;19.55;;;6.95;;
67747;SDS011;54543;50.712;6.070;2022-11-30T00:50:48;18.35;;;6.60;;
67747;SDS011;54543;50.712;6.070;2022-11-30T00:53:15;19.75;;;7.03;;
67747;SDS011;54543;50.712;6.070;2022-11-30T00:55:44;17.50;;;5.97;;
67747;SDS011;54543;50.712;6.070;2022-11-30T00:58:10;20.20;;;6.72;;
67747;SDS011;54543;50.712;6.070;2022-11-30T01:00:36;17.23;;;6.45;;
67747;SDS011;54543;50.712;6.070;2022-11-30T01:03:02;14.65;;;5.93;;
67747;SDS011;54543;50.712;6.070;2022-11-30T01:05:28;16.00;;;6.30;;
67747;SDS011;54543;50.712;6.070;2022-11-30T01:07:54;15.38;;;6.07;;
67747;SDS011;54543;50.712;6.070;2022-11-30T01:10:20;20.55;;;7.47;;
67747;SDS011;54543;50.712;6.070;2022-11-30T01:12:47;18.70;;;6.72;;
67747;SDS011;54543;50.712;6.070;2022-11-30T01:15:13;21.70;;;7.00;;
67747;SDS011;54543;50.712;6.070;2022-11-30T01:17:38;19.35;;;6.70;;
67747;SDS011;54543;50.712;6.070;2022-11-30T01:20:05;18.45;;;6.90;;
67747;SDS011;54543;50.712;6.070;2022-11-30T01:22:32;15.60;;;5.88;;
67747;SDS011;54543;50.712;6.070;2022-11-30T01:24:57;20.55;;;7.43;;
67747;SDS011;54543;50.712;6.070;2022-11-30T01:27:23;17.02;;;6.55;;
67747;SDS011;54543;50.712;6.070;2022-11-30T01:29:49;19.17;;;6.50;;
67747;SDS011;54543;50.712;6.070;2022-11-30T01:32:14;18.58;;;7.10;;
67747;SDS011;54543;50.712;6.070;2022-11-30T01:34:40;20.42;;;7.18;;
67747;SDS011;54543;50.712;6.070;2022-11-30T01:37:05;16.58;;;6.25;;
67747;SDS011;54543;50.712;6.070;2022-11-30T01:39:30;19.67;;;6.53;;
67747;SDS011;54543;50.712;6.070;2022-11-30T01:41:56;17.70;;;6.93;;
67747;SDS011;54543;50.712;6.070;2022-11-30T01:47:04;20.00;;;7.15;;
67747;SDS011;54543;50.712;6.070;2022-11-30T01:49:34;23.42;;;7.10;;
67747;SDS011;54543;50.712;6.070;2022-11-30T01:52:10;20.67;;;7.00;;
67747;SDS011;54543;50.712;6.070;2022-11-30T01:57:29;19.35;;;6.38;;
67747;SDS011;54543;50.712;6.070;2022-11-30T01:59:56;16.50;;;6.30;;
67747;SDS011;54543;50.712;6.070;2022-11-30T02:02:29;19.83;;;6.10;;
67747;SDS011;54543;50.712;6.070;2022-11-30T02:05:02;18.40;;;5.82;;
67747;SDS011;54543;50.712;6.070;2022-11-30T02:07:27;18.52;;;7.30;;
67747;SDS011;54543;50.712;6.070;2022-11-30T02:09:53;20.55;;;7.10;;
67747;SDS011;54543;50.712;6.070;2022-11-30T02:12:38;20.48;;;7.85;;
67747;SDS011;54543;50.712;6.070;2022-11-30T02:15:14;22.98;;;7.38;;
67747;SDS011;54543;50.712;6.070;2022-11-30T02:18:03;24.90;;;7.88;;
67747;SDS011;54543;50.712;6.070;2022-11-30T02:26:14;32.05;;;9.32;;
67747;SDS011;54543;50.712;6.070;2022-11-30T02:31:28;20.52;;;7.15;;
67747;SDS011;54543;50.712;6.070;2022-11-30T02:34:02;23.35;;;7.45;;
67747;SDS011;54543;50.712;6.070;2022-11-30T02:36:29;28.08;;;7.80;;
67747;SDS011;54543;50.712;6.070;2022-11-30T02:38:56;25.33;;;7.18;;
67747;SDS011;54543;50.712;6.070;2022-11-30T02:41:22;25.65;;;8.80;;
67747;SDS011;54543;50.712;6.070;2022-11-30T02:43:48;21.92;;;8.00;;
67747;SDS011;54543;50.712;6.070;2022-11-30T02:46:19;23.55;;;7.88;;
67747;SDS011;54543;50.712;6.070;2022-11-30T02:51:51;31.33;;;9.32;;
67747;SDS011;54543;50.712;6.070;2022-11-30T02:54:19;25.45;;;9.02;;
67747;SDS011;54543;50.712;6.070;2022-11-30T02:56:45;20.50;;;6.82;;
67747;SDS011;54543;50.712;6.070;2022-11-30T02:59:10;30.13;;;8.50;;
67747;SDS011;54543;50.712;6.070;2022-11-30T03:01:36;23.08;;;7.88;;
67747;SDS011;54543;50.712;6.070;2022-11-30T03:04:03;21.60;;;7.47;;
67747;SDS011;54543;50.712;6.070;2022-11-30T03:06:29;30.40;;;9.45;;
67747;SDS011;54543;50.712;6.070;2022-11-30T03:08:54;24.70;;;8.68;;
67747;SDS011;54543;50.712;6.070;2022-11-30T03:11:20;25.33;;;8.93;;
67747;SDS011;54543;50.712;6.070;2022-11-30T03:13:45;18.25;;;6.03;;
67747;SDS011;54543;50.712;6.070;2022-11-30T03:16:11;25.38;;;9.13;;
67747;SDS011;54543;50.712;6.070;2022-11-30T03:18:37;27.50;;;8.38;;
67747;SDS011;54543;50.712;6.070;2022-11-30T03:21:07;21.92;;;6.82;;
67747;SDS011;54543;50.712;6.070;2022-11-30T03:23:34;23.80;;;7.22;;
67747;SDS011;54543;50.712;6.070;2022-11-30T03:25:59;22.75;;;6.90;;
67747;SDS011;54543;50.712;6.070;2022-11-30T03:28:26;27.70;;;9.60;;
67747;SDS011;54543;50.712;6.070;2022-11-30T03:30:51;24.05;;;8.05;;
67747;SDS011;54543;50.712;6.070;2022-11-30T03:33:17;24.23;;;8.02;;
67747;SDS011;54543;50.712;6.070;2022-11-30T03:35:43;20.40;;;7.38;;
67747;SDS011;54543;50.712;6.070;2022-11-30T03:38:09;19.83;;;7.00;;
67747;SDS011;54543;50.712;6.070;2022-11-30T03:40:35;19.83;;;6.93;;
67747;SDS011;54543;50.712;6.070;2022-11-30T03:43:01;24.88;;;8.20;;
67747;SDS011;54543;50.712;6.070;2022-11-30T03:45:27;21.63;;;8.25;;
67747;SDS011;54543;50.712;6.070;2022-11-30T03:47:52;19.35;;;7.22;;
67747;SDS011;54543;50.712;6.070;2022-11-30T03:50:18;12.57;;;4.57;;
67747;SDS011;54543;50.712;6.070;2022-11-30T03:52:43;19.52;;;6.55;;
67747;SDS011;54543;50.712;6.070;2022-11-30T03:55:09;16.13;;;5.97;;
67747;SDS011;54543;50.712;6.070;2022-11-30T03:57:35;20.98;;;6.78;;
67747;SDS011;54543;50.712;6.070;2022-11-30T04:00:00;18.27;;;5.50;;
67747;SDS011;54543;50.712;6.070;2022-11-30T04:02:26;15.82;;;5.25;;
67747;SDS011;54543;50.712;6.070;2022-11-30T04:04:51;15.82;;;5.53;;
67747;SDS011;54543;50.712;6.070;2022-11-30T04:07:17;15.73;;;5.22;;
67747;SDS011;54543;50.712;6.070;2022-11-30T04:09:42;16.67;;;5.88;;
67747;SDS011;54543;50.712;6.070;2022-11-30T04:12:07;15.55;;;5.75;;
67747;SDS011;54543;50.712;6.070;2022-11-30T04:14:33;17.65;;;5.80;;
67747;SDS011;54543;50.712;6.070;2022-11-30T04:16:58;15.65;;;5.45;;
67747;SDS011;54543;50.712;6.070;2022-11-30T04:19:24;14.35;;;5.10;;
67747;SDS011;54543;50.712;6.070;2022-11-30T04:21:49;14.93;;;5.70;;
67747;SDS011;54543;50.712;6.070;2022-11-30T04:24:15;19.75;;;5.40;;
67747;SDS011;54543;50.712;6.070;2022-11-30T04:26:41;18.60;;;6.10;;
67747;SDS011;54543;50.712;6.070;2022-11-30T04:29:06;26.58;;;7.28;;
67747;SDS011;54543;50.712;6.070;2022-11-30T04:31:32;17.45;;;6.13;;
67747;SDS011;54543;50.712;6.070;2022-11-30T04:33:57;21.77;;;7.03;;
67747;SDS011;54543;50.712;6.070;2022-11-30T04:36:23;19.95;;;6.38;;
67747;SDS011;54543;50.712;6.070;2022-11-30T04:38:49;16.38;;;5.40;;
67747;SDS011;54543;50.712;6.070;2022-11-30T04:41:14;19.63;;;6.55;;
67747;SDS011;54543;50.712;6.070;2022-11-30T04:43:40;22.65;;;6.10;;
67747;SDS011;54543;50.712;6.070;2022-11-30T04:46:05;14.88;;;4.82;;
67747;SDS011;54543;50.712;6.070;2022-11-30T04:48:31;15.38;;;5.75;;
67747;SDS011;54543;50.712;6.070;2022-11-30T04:51:01;15.65;;;5.03;;
67747;SDS011;54543;50.712;6.070;2022-11-30T04:53:31;11.25;;;4.32;;
67747;SDS011;54543;50.712;6.070;2022-11-30T04:55:57;13.95;;;5.03;;
67747;SDS011;54543;50.712;6.070;2022-11-30T04:58:23;18.50;;;5.65;;
67747;SDS011;54543;50.712;6.070;2022-11-30T05:00:48;17.92;;;5.68;;
67747;SDS011;54543;50.712;6.070;2022-11-30T05:03:14;14.98;;;5.68;;
67747;SDS011;54543;50.712;6.070;2022-11-30T05:05:39;11.95;;;4.70;;
67747;SDS011;54543;50.712;6.070;2022-11-30T05:08:05;14.43;;;5.07;;
67747;SDS011;54543;50.712;6.070;2022-11-30T05:10:31;14.52;;;4.90;;
67747;SDS011;54543;50.712;6.070;2022-11-30T05:12:58;13.80;;;5.25;;
67747;SDS011;54543;50.712;6.070;2022-11-30T05:15:23;15.05;;;5.78;;
67747;SDS011;54543;50.712;6.070;2022-11-30T05:17:49;16.98;;;5.00;;
67747;SDS011;54543;50.712;6.070;2022-11-30T05:20:15;16.02;;;5.32;;
67747;SDS011;54543;50.712;6.070;2022-11-30T05:22:40;14.95;;;4.95;;
67747;SDS011;54543;50.712;6.070;2022-11-30T05:25:06;16.90;;;5.25;;
67747;SDS011;54543;50.712;6.070;2022-11-30T05:27:33;16.13;;;5.95;;
67747;SDS011;54543;50.712;6.070;2022-11-30T05:29:59;16.38;;;5.07;;
67747;SDS011;54543;50.712;6.070;2022-11-30T05:32:25;17.15;;;4.50;;
67747;SDS011;54543;50.712;6.070;2022-11-30T05:34:50;16.00;;;4.95;;
67747;SDS011;54543;50.712;6.070;2022-11-30T05:37:16;27.48;;;5.32;;
67747;SDS011;54543;50.712;6.070;2022-11-30T05:39:42;21.38;;;4.95;;
67747;SDS011;54543;50.712;6.070;2022-11-30T05:42:08;26.02;;;4.45;;
67747;SDS011;54543;50.712;6.070;2022-11-30T05:44:33;17.67;;;4.38;;
67747;SDS011;54543;50.712;6.070;2022-11-30T05:46:59;25.55;;;5.80;;
67747;SDS011;54543;50.712;6.070;2022-11-30T05:49:24;30.10;;;5.00;;
67747;SDS011;54543;50.712;6.070;2022-11-30T05:51:50;30.25;;;5.03;;
67747;SDS011;54543;50.712;6.070;2022-11-30T05:54:15;27.20;;;4.78;;
67747;SDS011;54543;50.712;6.070;2022-11-30T05:56:41;12.57;;;3.80;;
67747;SDS011;54543;50.712;6.070;2022-11-30T05:59:08;28.10;;;5.70;;
67747;SDS011;54543;50.712;6.070;2022-11-30T06:01:34;18.85;;;4.75;;
67747;SDS011;54543;50.712;6.070;2022-11-30T06:04:00;18.08;;;6.30;;
67747;SDS011;54543;50.712;6.070;2022-11-30T06:06:29;17.60;;;5.95;;
67747;SDS011;54543;50.712;6.070;2022-11-30T06:08:54;17.60;;;5.60;;
67747;SDS011;54543;50.712;6.070;2022-11-30T06:11:20;18.88;;;5.53;;
67747;SDS011;54543;50.712;6.070;2022-11-30T06:13:45;17.25;;;6.25;;
67747;SDS011;54543;50.712;6.070;2022-11-30T06:16:11;15.38;;;5.05;;
67747;SDS011;54543;50.712;6.070;2022-11-30T06:18:37;15.32;;;5.70;;
67747;SDS011;54543;50.712;6.070;2022-11-30T06:21:04;19.55;;;6.40;;
67747;SDS011;54543;50.712;6.070;2022-11-30T06:23:31;17.13;;;6.18;;
67747;SDS011;54543;50.712;6.070;2022-11-30T06:25:57;17.52;;;5.63;;
67747;SDS011;54543;50.712;6.070;2022-11-30T06:28:23;14.73;;;6.20;;
67747;SDS011;54543;50.712;6.070;2022-11-30T06:30:49;18.15;;;6.07;;
67747;SDS011;54543;50.712;6.070;2022-11-30T06:33:15;20.88;;;7.07;;
67747;SDS011;54543;50.712;6.070;2022-11-30T06:35:46;18.42;;;6.75;;
67747;SDS011;54543;50.712;6.070;2022-11-30T06:38:12;21.25;;;7.05;;
67747;SDS011;54543;50.712;6.070;2022-11-30T06:40:37;17.23;;;6.82;;
67747;SDS011;54543;50.712;6.070;2022-11-30T06:43:03;23.38;;;8.18;;
67747;SDS011;54543;50.712;6.070;2022-11-30T06:45:29;21.50;;;7.68;;
67747;SDS011;54543;50.712;6.070;2022-11-30T06:47:55;20.27;;;7.18;;
67747;SDS011;54543;50.712;6.070;2022-11-30T06:50:21;23.35;;;8.43;;
67747;SDS011;54543;50.712;6.070;2022-11-30T06:52:47;24.42;;;8.70;;
67747;SDS011;54543;50.712;6.070;2022-11-30T06:55:13;24.00;;;8.55;;
67747;SDS011;54543;50.712;6.070;2022-11-30T06:57:39;23.38;;;8.48;;
67747;SDS011;54543;50.712;6.070;2022-11-30T07:00:04;24.35;;;9.05;;
67747;SDS011;54543;50.712;6.070;2022-11-30T07:02:31;21.30;;;7.50;;
67747;SDS011;54543;50.712;6.070;2022-11-30T07:04:56;23.30;;;8.27;;
67747;SDS011;54543;50.712;6.070;2022-11-30T07:07:21;21.70;;;8.80;;
67747;SDS011;54543;50.712;6.070;2022-11-30T07:09:48;22.23;;;8.32;;
67747;SDS011;54543;50.712;6.070;2022-11-30T07:12:14;22.70;;;8.23;;
67747;SDS011;54543;50.712;6.070;2022-11-30T07:14:40;24.17;;;8.38;;
67747;SDS011;54543;50.712;6.070;2022-11-30T07:17:06;24.60;;;9.40;;
67747;SDS011;54543;50.712;6.070;2022-11-30T07:19:31;22.08;;;9.10;;
67747;SDS011;54543;50.712;6.070;2022-11-30T07:22:00;23.15;;;9.40;;
67747;SDS011;54543;50.712;6.070;2022-11-30T07:24:26;22.63;;;9.35;;
67747;SDS011;54543;50.712;6.070;2022-11-30T07:27:09;22.10;;;8.75;;
67747;SDS011;54543;50.712;6.070;2022-11-30T07:29:35;22.88;;;8.55;;
67747;SDS011;54543;50.712;6.070;2022-11-30T07:32:00;19.08;;;7.63;;
67747;SDS011;54543;50.712;6.070;2022-11-30T07:34:26;23.65;;;9.73;;
67747;SDS011;54543;50.712;6.070;2022-11-30T07:36:51;20.85;;;8.75;;
67747;SDS011;54543;50.712;6.070;2022-11-30T07:39:17;18.73;;;8.23;;
67747;SDS011;54543;50.712;6.070;2022-11-30T07:41:43;21.42;;;8.32;;
67747;SDS011;54543;50.712;6.070;2022-11-30T07:44:09;23.50;;;9.52;;
67747;SDS011;54543;50.712;6.070;2022-11-30T07:46:36;19.95;;;8.85;;
67747;SDS011;54543;50.712;6.070;2022-11-30T07:49:03;19.33;;;8.95;;
67747;SDS011;54543;50.712;6.070;2022-11-30T07:51:32;19.77;;;8.48;;
67747;SDS011;54543;50.712;6.070;2022-11-30T07:53:58;20.38;;;8.05;;
67747;SDS011;54543;50.712;6.070;2022-11-30T07:56:24;22.52;;;9.05;;
67747;SDS011;54543;50.712;6.070;2022-11-30T07:58:52;21.90;;;9.25;;
67747;SDS011;54543;50.712;6.070;2022-11-30T08:01:20;22.00;;;9.30;;
67747;SDS011;54543;50.712;6.070;2022-11-30T08:03:50;22.70;;;9.13;;
67747;SDS011;54543;50.712;6.070;2022-11-30T08:06:18;20.88;;;8.60;;
67747;SDS011;54543;50.712;6.070;2022-11-30T08:08:45;18.85;;;8.68;;
67747;SDS011;54543;50.712;6.070;2022-11-30T08:11:13;18.85;;;8.25;;
67747;SDS011;54543;50.712;6.070;2022-11-30T08:13:40;21.95;;;9.15;;
67747;SDS011;54543;50.712;6.070;2022-11-30T08:16:07;24.08;;;8.40;;
67747;SDS011;54543;50.712;6.070;2022-11-30T08:18:38;21.30;;;8.25;;
67747;SDS011;54543;50.712;6.070;2022-11-30T08:21:04;20.75;;;8.48;;
67747;SDS011;54543;50.712;6.070;2022-11-30T08:23:36;21.50;;;8.95;;
67747;SDS011;54543;50.712;6.070;2022-11-30T08:26:06;21.65;;;8.65;;
67747;SDS011;54543;50.712;6.070;2022-11-30T08:28:35;21.75;;;8.63;;
67747;SDS011;54543;50.712;6.070;2022-11-30T08:31:01;25.90;;;9.70;;
67747;SDS011;54543;50.712;6.070;2022-11-30T08:33:29;22.90;;;8.73;;
67747;SDS011;54543;50.712;6.070;2022-11-30T08:36:06;22.52;;;8.65;;
67747;SDS011;54543;50.712;6.070;2022-11-30T08:38:33;24.83;;;9.82;;
67747;SDS011;54543;50.712;6.070;2022-11-30T08:40:59;24.17;;;9.13;;
67747;SDS011;54543;50.712;6.070;2022-11-30T08:43:24;19.38;;;8.57;;
67747;SDS011;54543;50.712;6.070;2022-11-30T08:45:50;20.55;;;8.35;;
67747;SDS011;54543;50.712;6.070;2022-11-30T08:48:15;19.30;;;9.00;;
67747;SDS011;54543;50.712;6.070;2022-11-30T08:50:41;22.02;;;8.65;;
67747;SDS011;54543;50.712;6.070;2022-11-30T08:53:06;22.33;;;7.85;;
67747;SDS011;54543;50.712;6.070;2022-11-30T08:55:32;18.88;;;7.97;;
67747;SDS011;54543;50.712;6.070;2022-11-30T08:57:57;23.13;;;9.20;;
67747;SDS011;54543;50.712;6.070;2022-11-30T09:00:23;21.23;;;8.75;;
67747;SDS011;54543;50.712;6.070;2022-11-30T09:02:48;22.95;;;8.27;;
67747;SDS011;54543;50.712;6.070;2022-11-30T09:05:14;21.20;;;8.50;;
67747;SDS011;54543;50.712;6.070;2022-11-30T09:07:40;21.80;;;8.88;;
67747;SDS011;54543;50.712;6.070;2022-11-30T09:10:06;20.60;;;8.75;;
67747;SDS011;54543;50.712;6.070;2022-11-30T09:12:35;21.02;;;8.95;;
67747;SDS011;54543;50.712;6.070;2022-11-30T09:15:02;18.80;;;8.10;;
67747;SDS011;54543;50.712;6.070;2022-11-30T09:17:29;19.15;;;8.25;;
67747;SDS011;54543;50.712;6.070;2022-11-30T09:19:54;18.38;;;8.02;;
67747;SDS011;54543;50.712;6.070;2022-11-30T09:22:20;19.25;;;7.47;;
67747;SDS011;54543;50.712;6.070;2022-11-30T09:24:46;19.10;;;8.02;;
67747;SDS011;54543;50.712;6.070;2022-11-30T09:27:11;21.73;;;8.43;;
67747;SDS011;54543;50.712;6.070;2022-11-30T09:29:37;22.08;;;8.73;;
67747;SDS011;54543;50.712;6.070;2022-11-30T09:32:03;18.27;;;8.27;;
67747;SDS011;54543;50.712;6.070;2022-11-30T09:34:29;20.45;;;9.25;;
67747;SDS011;54543;50.712;6.070;2022-11-30T09:36:54;19.00;;;8.57;;
67747;SDS011;54543;50.712;6.070;2022-11-30T09:39:20;17.75;;;7.43;;
67747;SDS011;54543;50.712;6.070;2022-11-30T09:50:23;18.05;;;7.53;;
67747;SDS011;54543;50.712;6.070;2022-11-30T09:52:59;19.77;;;7.68;;
67747;SDS011;54543;50.712;6.070;2022-11-30T09:55:37;19.58;;;7.55;;
67747;SDS011;54543;50.712;6.070;2022-11-30T09:58:06;17.38;;;7.20;;
67747;SDS011;54543;50.712;6.070;2022-11-30T10:00:35;18.95;;;7.95;;
67747;SDS011;54543;50.712;6.070;2022-11-30T10:03:03;16.10;;;7.28;;
67747;SDS011;54543;50.712;6.070;2022-11-30T10:05:40;18.08;;;7.57;;
67747;SDS011;54543;50.712;6.070;2022-11-30T10:16:48;15.18;;;6.90;;
67747;SDS011;54543;50.712;6.070;2022-11-30T10:30:11;16.35;;;7.50;;
67747;SDS011;54543;50.712;6.070;2022-11-30T10:32:40;18.02;;;8.30;;
67747;SDS011;54543;50.712;6.070;2022-11-30T10:37:59;19.58;;;8.93;;
67747;SDS011;54543;50.712;6.070;2022-11-30T10:45:44;20.13;;;8.95;;
67747;SDS011;54543;50.712;6.070;2022-11-30T10:48:15;19.75;;;8.23;;
67747;SDS011;54543;50.712;6.070;2022-11-30T10:50:48;16.05;;;8.27;;
67747;SDS011;54543;50.712;6.070;2022-11-30T10:53:13;20.83;;;8.98;;
67747;SDS011;54543;50.712;6.070;2022-11-30T10:55:40;17.58;;;8.50;;
67747;SDS011;54543;50.712;6.070;2022-11-30T11:01:08;18.80;;;8.68;;
67747;SDS011;54543;50.712;6.070;2022-11-30T11:04:05;16.52;;;7.72;;
67747;SDS011;54543;50.712;6.070;2022-11-30T11:06:32;19.17;;;8.73;;
67747;SDS011;54543;50.712;6.070;2022-11-30T11:08:58;19.08;;;8.43;;
67747;SDS011;54543;50.712;6.070;2022-11-30T11:11:51;20.50;;;8.80;;
67747;SDS011;54543;50.712;6.070;2022-11-30T11:14:19;22.73;;;8.77;;
67747;SDS011;54543;50.712;6.070;2022-11-30T11:16:48;22.60;;;9.93;;
67747;SDS011;54543;50.712;6.070;2022-11-30T11:19:35;21.23;;;9.82;;
67747;SDS011;54543;50.712;6.070;2022-11-30T11:24:38;20.42;;;9.07;;
67747;SDS011;54543;50.712;6.070;2022-11-30T11:27:05;21.60;;;9.88;;
67747;SDS011;54543;50.712;6.070;2022-11-30T11:29:33;21.85;;;9.07;;
67747;SDS011;54543;50.712;6.070;2022-11-30T11:34:37;19.45;;;8.30;;
67747;SDS011;54543;50.712;6.070;2022-11-30T11:39:42;21.42;;;9.45;;
67747;SDS011;54543;50.712;6.070;2022-11-30T11:42:18;20.73;;;9.73;;
67747;SDS011;54543;50.712;6.070;2022-11-30T11:44:48;22.55;;;9.55;;
67747;SDS011;54543;50.712;6.070;2022-11-30T11:47:32;12.82;;;6.53;;
67747;SDS011;54543;50.712;6.070;2022-11-30T11:50:27;18.15;;;9.15;;
67747;SDS011;54543;50.712;6.070;2022-11-30T11:55:50;19.52;;;8.15;;
67747;SDS011;54543;50.712;6.070;2022-11-30T11:58:34;18.73;;;8.50;;
67747;SDS011;54543;50.712;6.070;2022-11-30T12:01:05;18.45;;;8.73;;
67747;SDS011;54543;50.712;6.070;2022-11-30T12:04:36;15.05;;;7.72;;
67747;SDS011;54543;50.712;6.070;2022-11-30T12:06:36;17.58;;;8.35;;
67747;SDS011;54543;50.712;6.070;2022-11-30T12:09:04;15.32;;;8.05;;
67747;SDS011;54543;50.712;6.070;2022-11-30T12:14:11;13.13;;;7.45;;
67747;SDS011;54543;50.712;6.070;2022-11-30T12:19:35;20.10;;;8.02;;
67747;SDS011;54543;50.712;6.070;2022-11-30T12:22:15;15.93;;;7.68;;
67747;SDS011;54543;50.712;6.070;2022-11-30T12:30:06;16.13;;;8.50;;
67747;SDS011;54543;50.712;6.070;2022-11-30T12:38:16;17.77;;;8.40;;
67747;SDS011;54543;50.712;6.070;2022-11-30T12:43:42;17.95;;;8.20;;
67747;SDS011;54543;50.712;6.070;2022-11-30T12:49:25;19.42;;;9.18;;
67747;SDS011;54543;50.712;6.070;2022-11-30T12:52:23;19.20;;;8.35;;
67747;SDS011;54543;50.712;6.070;2022-11-30T12:57:48;18.77;;;9.15;;
67747;SDS011;54543;50.712;6.070;2022-11-30T13:00:29;18.00;;;7.85;;
67747;SDS011;54543;50.712;6.070;2022-11-30T13:06:00;18.88;;;8.77;;
67747;SDS011;54543;50.712;6.070;2022-11-30T13:11:37;20.75;;;8.93;;
67747;SDS011;54543;50.712;6.070;2022-11-30T13:14:20;20.55;;;9.07;;
67747;SDS011;54543;50.712;6.070;2022-11-30T13:16:47;18.60;;;9.95;;
67747;SDS011;54543;50.712;6.070;2022-11-30T13:22:01;19.52;;;8.30;;
67747;SDS011;54543;50.712;6.070;2022-11-30T13:24:44;15.65;;;8.05;;
67747;SDS011;54543;50.712;6.070;2022-11-30T13:27:16;17.45;;;7.75;;
67747;SDS011;54543;50.712;6.070;2022-11-30T13:32:54;18.55;;;8.40;;
67747;SDS011;54543;50.712;6.070;2022-11-30T13:38:17;18.05;;;8.50;;
67747;SDS011;54543;50.712;6.070;2022-11-30T13:40:51;19.90;;;9.60;;
67747;SDS011;54543;50.712;6.070;2022-11-30T13:43:25;19.63;;;9.05;;
67747;SDS011;54543;50.712;6.070;2022-11-30T13:46:04;15.73;;;8.35;;
67747;SDS011;54543;50.712;6.070;2022-11-30T13:48:47;18.13;;;8.30;;
67747;SDS011;54543;50.712;6.070;2022-11-30T13:51:32;16.73;;;8.13;;
67747;SDS011;54543;50.712;6.070;2022-11-30T13:57:03;16.92;;;7.70;;
67747;SDS011;54543;50.712;6.070;2022-11-30T13:59:49;17.35;;;8.57;;
67747;SDS011;54543;50.712;6.070;2022-11-30T14:10:33;18.05;;;8.70;;
67747;SDS011;54543;50.712;6.070;2022-11-30T14:13:44;16.77;;;8.15;;
67747;SDS011;54543;50.712;6.070;2022-11-30T14:23:13;18.23;;;7.90;;
67747;SDS011;54543;50.712;6.070;2022-11-30T14:25:47;19.92;;;9.30;;
67747;SDS011;54543;50.712;6.070;2022-11-30T14:28:26;20.35;;;9.52;;
67747;SDS011;54543;50.712;6.070;2022-11-30T14:30:58;17.77;;;8.80;;
67747;SDS011;54543;50.712;6.070;2022-11-30T14:33:26;19.92;;;8.88;;
67747;SDS011;54543;50.712;6.070;2022-11-30T14:36:02;21.13;;;9.15;;
67747;SDS011;54543;50.712;6.070;2022-11-30T14:38:30;19.98;;;9.35;;
67747;SDS011;54543;50.712;6.070;2022-11-30T14:40:56;19.27;;;9.35;;
67747;SDS011;54543;50.712;6.070;2022-11-30T14:43:22;19.83;;;9.25;;
67747;SDS011;54543;50.712;6.070;2022-11-30T14:46:02;19.17;;;8.90;;
67747;SDS011;54543;50.712;6.070;2022-11-30T14:48:29;20.13;;;8.80;;
67747;SDS011;54543;50.712;6.070;2022-11-30T14:50:55;19.67;;;8.80;;
67747;SDS011;54543;50.712;6.070;2022-11-30T14:53:29;18.63;;;8.45;;
67747;SDS011;54543;50.712;6.070;2022-11-30T15:01:47;16.02;;;7.78;;
67747;SDS011;54543;50.712;6.070;2022-11-30T15:04:18;18.67;;;8.57;;
67747;SDS011;54543;50.712;6.070;2022-11-30T15:06:44;17.95;;;8.30;;
67747;SDS011;54543;50.712;6.070;2022-11-30T15:09:16;19.92;;;9.23;;
67747;SDS011;54543;50.712;6.070;2022-11-30T15:11:45;17.92;;;8.43;;
67747;SDS011;54543;50.712;6.070;2022-11-30T15:14:12;17.80;;;8.00;;
67747;SDS011;54543;50.712;6.070;2022-11-30T15:16:45;19.75;;;9.15;;
67747;SDS011;54543;50.712;6.070;2022-11-30T15:19:19;19.05;;;8.70;;
67747;SDS011;54543;50.712;6.070;2022-11-30T15:21:50;18.70;;;8.70;;
67747;SDS011;54543;50.712;6.070;2022-11-30T15:24:16;19.27;;;8.35;;
67747;SDS011;54543;50.712;6.070;2022-11-30T15:26:47;17.80;;;8.63;;
67747;SDS011;54543;50.712;6.070;2022-11-30T15:29:43;16.70;;;8.15;;
67747;SDS011;54543;50.712;6.070;2022-11-30T15:32:14;21.08;;;8.88;;
67747;SDS011;54543;50.712;6.070;2022-11-30T15:34:48;20.92;;;8.98;;
67747;SDS011;54543;50.712;6.070;2022-11-30T15:37:16;17.25;;;8.18;;
67747;SDS011;54543;50.712;6.070;2022-11-30T15:39:50;17.35;;;7.28;;
67747;SDS011;54543;50.712;6.070;2022-11-30T15:42:19;21.40;;;8.60;;
67747;SDS011;54543;50.712;6.070;2022-11-30T15:44:51;19.60;;;8.85;;
67747;SDS011;54543;50.712;6.070;2022-11-30T15:47:35;16.65;;;7.88;;
67747;SDS011;54543;50.712;6.070;2022-11-30T15:50:18;17.52;;;8.32;;
67747;SDS011;54543;50.712;6.070;2022-11-30T15:52:50;17.75;;;7.63;;
67747;SDS011;54543;50.712;6.070;2022-11-30T15:58:23;17.77;;;7.45;;
67747;SDS011;54543;50.712;6.070;2022-11-30T16:03:57;14.40;;;6.90;;
67747;SDS011;54543;50.712;6.070;2022-11-30T16:06:25;16.42;;;7.70;;
67747;SDS011;54543;50.712;6.070;2022-11-30T16:08:51;16.73;;;8.00;;
67747;SDS011;54543;50.712;6.070;2022-11-30T16:11:17;15.77;;;7.63;;
67747;SDS011;54543;50.712;6.070;2022-11-30T16:13:43;17.23;;;9.00;;
67747;SDS011;54543;50.712;6.070;2022-11-30T16:16:11;18.70;;;7.95;;
67747;SDS011;54543;50.712;6.070;2022-11-30T16:18:38;18.10;;;8.15;;
67747;SDS011;54543;50.712;6.070;2022-11-30T16:21:04;19.15;;;9.73;;
67747;SDS011;54543;50.712;6.070;2022-11-30T16:23:32;16.00;;;8.38;;
67747;SDS011;54543;50.712;6.070;2022-11-30T16:25:58;17.98;;;9.23;;
67747;SDS011;54543;50.712;6.070;2022-11-30T16:28:24;17.90;;;9.02;;
67747;SDS011;54543;50.712;6.070;2022-11-30T16:30:50;17.73;;;8.82;;
67747;SDS011;54543;50.712;6.070;2022-11-30T16:33:18;16.00;;;8.18;;
67747;SDS011;54543;50.712;6.070;2022-11-30T16:35:50;20.75;;;9.05;;
67747;SDS011;54543;50.712;6.070;2022-11-30T16:38:19;14.52;;;7.55;;
67747;SDS011;54543;50.712;6.070;2022-11-30T16:40:45;17.75;;;8.40;;
67747;SDS011;54543;50.712;6.070;2022-11-30T16:43:11;14.95;;;8.40;;
67747;SDS011;54543;50.712;6.070;2022-11-30T16:45:37;14.77;;;7.63;;
67747;SDS011;54543;50.712;6.070;2022-11-30T16:48:04;15.02;;;8.00;;
67747;SDS011;54543;50.712;6.070;2022-11-30T16:50:30;14.45;;;7.53;;
67747;SDS011;54543;50.712;6.070;2022-11-30T16:52:58;14.70;;;7.68;;
67747;SDS011;54543;50.712;6.070;2022-11-30T16:55:28;15.25;;;8.00;;
67747;SDS011;54543;50.712;6.070;2022-11-30T16:57:56;18.95;;;8.65;;
67747;SDS011;54543;50.712;6.070;2022-11-30T17:00:22;15.02;;;7.82;;